EHGG/GRQ METAR and TAF weather

Enter ICAO airport designator
Station Type Date Time Source
EHGG METAR 2018/07/16 23:55 UTC NOAA

EHGG 162355Z AUTO 08002KT 9999 NSC 16/13 Q1013


Station Type Date Time Source
EHGG Decoded METAR 2018/07/16 23:55 UTC NOAA

Groningen Airport Eelde, Netherlands (EHGG) 53-08N 006-35E 4M
Jul 16, 2018 - 07:55 PM EDT / 2018.07.16 2355 UTC
Wind: from the E (080 degrees) at 2 MPH (2 KT):0
Visibility: greater than 7 mile(s):0
Temperature: 60 F (16 C)
Dew Point: 55 F (13 C)
Relative Humidity: 82%
Pressure (altimeter): 29.91 in. Hg (1013 hPa)
ob: EHGG 162355Z AUTO 08002KT 9999 NSC 16/13 Q1013
cycle: 0

Station Type Date Time Source
EHGG TAF 2018/07/16 18:27 UTC NOAA

TAF EHGG 161720Z 1618/1724 04009KT CAVOK
BECMG 1710/1713 27010KT


Example: see airport list